createdAt,value
2022-07-28T00:00:57.544Z,27.70
2022-07-28T00:03:25.314Z,27.70
2022-07-28T00:05:53.249Z,27.80
2022-07-28T00:08:21.122Z,27.80
2022-07-28T00:10:50.264Z,27.80
2022-07-28T00:13:18.157Z,27.80
2022-07-28T00:15:45.971Z,27.90
2022-07-28T00:18:13.921Z,27.90
2022-07-28T00:20:41.744Z,28.00
2022-07-28T00:23:09.697Z,28.00
2022-07-28T00:25:37.634Z,28.00
2022-07-28T00:28:06.838Z,28.10
2022-07-28T00:30:34.698Z,28.10
2022-07-28T00:33:02.830Z,28.10
2022-07-28T00:35:32.573Z,28.10
2022-07-28T00:38:01.177Z,28.20
2022-07-28T00:40:43.079Z,28.20
2022-07-28T00:43:12.189Z,28.20
2022-07-28T00:45:39.984Z,28.20
2022-07-28T00:48:07.798Z,28.30
2022-07-28T00:50:35.568Z,28.30
2022-07-28T00:53:03.752Z,28.30
2022-07-28T00:55:32.558Z,28.40
2022-07-28T00:58:21.590Z,28.40
2022-07-28T01:00:49.348Z,28.40
2022-07-28T01:03:17.163Z,28.40
2022-07-28T01:05:46.807Z,28.50
2022-07-28T01:08:17.731Z,28.50
2022-07-28T01:10:47.727Z,28.60
2022-07-28T01:13:18.354Z,28.60
2022-07-28T01:15:49.596Z,28.80
2022-07-28T01:18:18.732Z,28.80
2022-07-28T01:20:48.116Z,28.80
2022-07-28T01:23:28.897Z,28.90
2022-07-28T01:26:03.245Z,28.90
2022-07-28T01:28:44.528Z,28.90
2022-07-28T01:31:15.445Z,29.00
2022-07-28T01:33:45.331Z,29.00
2022-07-28T01:36:15.419Z,29.00
2022-07-28T01:38:43.126Z,29.10
2022-07-28T01:41:12.450Z,29.10
2022-07-28T01:43:42.396Z,29.20
2022-07-28T01:46:10.190Z,29.20
2022-07-28T01:48:40.229Z,29.30
2022-07-28T01:51:08.418Z,29.30
2022-07-28T01:53:37.769Z,29.40
2022-07-28T01:56:06.233Z,29.50
2022-07-28T01:58:33.940Z,29.50
2022-07-28T02:01:01.659Z,29.60
2022-07-28T02:03:29.878Z,29.70
2022-07-28T02:05:59.238Z,29.70
2022-07-28T02:08:27.010Z,29.80
2022-07-28T02:11:18.779Z,29.90
2022-07-28T02:13:47.208Z,29.90
2022-07-28T02:16:15.282Z,29.90
2022-07-28T02:18:43.019Z,30.00
2022-07-28T02:21:12.095Z,30.10
2022-07-28T02:23:40.016Z,30.20
2022-07-28T02:26:09.856Z,30.20
2022-07-28T02:28:37.535Z,30.30
2022-07-28T02:31:10.175Z,30.30
2022-07-28T02:33:58.793Z,30.40
2022-07-28T02:36:29.349Z,30.50
2022-07-28T02:39:02.652Z,30.60
2022-07-28T02:41:30.813Z,30.70
2022-07-28T02:44:00.664Z,30.70
2022-07-28T02:46:30.134Z,30.80
2022-07-28T02:49:00.796Z,30.80
2022-07-28T02:51:29.924Z,30.90
2022-07-28T02:53:57.586Z,31.00
2022-07-28T02:56:25.247Z,31.00
2022-07-28T02:58:52.928Z,31.00
2022-07-28T03:01:20.846Z,31.10
2022-07-28T03:03:48.606Z,31.10
2022-07-28T03:06:17.121Z,31.20
2022-07-28T03:08:46.163Z,31.20
2022-07-28T03:11:14.721Z,31.20
2022-07-28T03:13:42.389Z,31.30
2022-07-28T03:16:10.241Z,31.30
2022-07-28T03:18:37.953Z,31.40
2022-07-28T03:21:07.018Z,31.40
2022-07-28T03:23:37.461Z,31.40
2022-07-28T03:26:15.912Z,31.50
2022-07-28T03:28:43.625Z,31.50
2022-07-28T03:31:12.151Z,31.50
2022-07-28T03:33:39.976Z,31.50
2022-07-28T03:36:09.637Z,31.50
2022-07-28T03:38:39.017Z,31.50
2022-07-28T03:41:09.448Z,31.50
2022-07-28T03:43:37.182Z,31.50
2022-07-28T03:46:07.599Z,31.50
2022-07-28T03:48:38.987Z,31.50
2022-07-28T03:51:06.807Z,31.50
2022-07-28T03:53:34.513Z,31.60
2022-07-28T03:56:03.280Z,31.60
2022-07-28T03:58:32.976Z,31.60
2022-07-28T04:01:00.743Z,31.60
2022-07-28T04:03:42.907Z,31.60
2022-07-28T04:06:12.003Z,31.60
2022-07-28T04:08:39.707Z,31.60
2022-07-28T04:11:07.419Z,31.60
2022-07-28T04:13:37.130Z,31.60
2022-07-28T04:16:05.660Z,31.60
2022-07-28T04:18:33.369Z,31.50
2022-07-28T04:21:01.065Z,31.50
2022-07-28T04:23:29.196Z,31.50
2022-07-28T04:25:56.882Z,31.50
2022-07-28T04:28:25.286Z,31.60
2022-07-28T04:30:54.339Z,31.50
2022-07-28T04:33:22.097Z,31.60
2022-07-28T04:35:49.770Z,31.50
2022-07-28T04:38:17.980Z,31.50
2022-07-28T04:40:45.898Z,31.50
2022-07-28T04:43:13.738Z,31.40
2022-07-28T04:45:52.968Z,31.40
2022-07-28T04:48:23.870Z,31.40
2022-07-28T04:50:52.590Z,31.30
2022-07-28T04:53:20.692Z,31.30
2022-07-28T04:55:49.275Z,31.40
2022-07-28T04:58:18.268Z,31.30
2022-07-28T05:00:49.921Z,31.40
2022-07-28T05:03:18.323Z,31.40
2022-07-28T05:05:51.440Z,31.30
2022-07-28T05:08:26.117Z,31.40
2022-07-28T05:10:55.397Z,31.30
2022-07-28T05:13:23.072Z,31.30
2022-07-28T05:15:51.087Z,31.30
2022-07-28T05:18:18.781Z,31.30
2022-07-28T05:20:47.789Z,31.20
2022-07-28T05:23:17.508Z,31.20
2022-07-28T05:25:45.278Z,31.20
2022-07-28T05:28:13.005Z,31.20
2022-07-28T05:30:40.711Z,31.20
2022-07-28T05:33:08.440Z,31.20
2022-07-28T05:35:36.119Z,31.20
2022-07-28T05:38:10.369Z,31.20
2022-07-28T05:40:38.625Z,31.20
2022-07-28T05:43:06.339Z,31.10
2022-07-28T05:45:34.553Z,31.10
2022-07-28T05:48:02.319Z,31.10
2022-07-28T05:50:30.002Z,31.10
2022-07-28T05:52:57.684Z,31.00
2022-07-28T05:55:26.828Z,31.00
2022-07-28T05:57:55.048Z,31.00
2022-07-28T06:00:24.033Z,31.00
2022-07-28T06:02:51.795Z,31.00
2022-07-28T06:05:20.254Z,31.00
2022-07-28T06:07:48.340Z,31.00
2022-07-28T06:10:16.980Z,31.00
2022-07-28T06:12:47.060Z,31.00
2022-07-28T06:15:14.983Z,31.00
2022-07-28T06:17:42.701Z,31.00
2022-07-28T06:20:11.435Z,31.00
2022-07-28T06:22:43.400Z,31.00
2022-07-28T06:25:14.783Z,31.00
2022-07-28T06:27:42.543Z,30.90
2022-07-28T06:30:12.392Z,30.90
2022-07-28T06:32:40.113Z,30.90
2022-07-28T06:35:08.919Z,30.90
2022-07-28T06:37:36.581Z,30.90
2022-07-28T06:40:04.800Z,30.90
2022-07-28T06:42:32.573Z,30.90
2022-07-28T06:45:00.355Z,30.80
2022-07-28T06:47:29.505Z,30.80
2022-07-28T06:49:57.181Z,30.70
2022-07-28T06:52:25.017Z,30.70
2022-07-28T06:54:53.077Z,30.70
2022-07-28T06:57:33.143Z,30.70
2022-07-28T07:00:02.431Z,30.70
2022-07-28T07:02:31.452Z,30.70
2022-07-28T07:04:59.233Z,30.70
2022-07-28T07:07:26.950Z,30.60
2022-07-28T07:09:54.642Z,30.60
2022-07-28T07:12:22.378Z,30.50
2022-07-28T07:14:50.108Z,30.50
2022-07-28T07:17:17.844Z,30.60
2022-07-28T07:19:46.869Z,30.50
2022-07-28T07:22:14.667Z,30.50
2022-07-28T07:24:42.415Z,30.40
2022-07-28T07:27:10.098Z,30.40
2022-07-28T07:29:37.799Z,30.40
2022-07-28T07:32:10.175Z,30.40
2022-07-28T07:34:39.306Z,30.40
2022-07-28T07:37:13.441Z,30.40
2022-07-28T07:39:41.972Z,30.30
2022-07-28T07:42:09.667Z,30.40
2022-07-28T07:44:37.376Z,30.30
2022-07-28T07:47:05.578Z,30.40
2022-07-28T07:49:44.946Z,30.40
2022-07-28T07:52:15.165Z,30.40
2022-07-28T07:54:43.006Z,30.30
2022-07-28T07:57:10.780Z,30.30
2022-07-28T07:59:38.478Z,30.30
2022-07-28T08:02:06.722Z,30.30
2022-07-28T08:04:37.451Z,30.30
2022-07-28T08:07:06.016Z,30.20
2022-07-28T08:09:35.083Z,30.20
2022-07-28T08:12:02.827Z,30.20
2022-07-28T08:14:30.500Z,30.20
2022-07-28T08:16:59.177Z,30.20
2022-07-28T08:19:26.994Z,30.20
2022-07-28T08:21:55.302Z,30.20
2022-07-28T08:24:32.537Z,30.20
2022-07-28T08:27:02.932Z,30.20
2022-07-28T08:29:30.650Z,30.20
2022-07-28T08:31:58.376Z,30.20
2022-07-28T08:34:33.350Z,30.20
2022-07-28T08:37:02.103Z,30.20
2022-07-28T08:39:29.834Z,30.10
2022-07-28T08:42:00.535Z,30.10
2022-07-28T08:44:38.794Z,30.20
2022-07-28T08:47:08.819Z,30.10
2022-07-28T08:49:39.267Z,30.00
2022-07-28T08:52:08.645Z,30.10
2022-07-28T08:54:36.330Z,30.00
2022-07-28T08:57:04.290Z,30.00
2022-07-28T08:59:33.362Z,30.00
2022-07-28T09:02:01.101Z,30.00
2022-07-28T09:04:28.885Z,30.00
2022-07-28T09:06:56.582Z,30.00
2022-07-28T09:09:24.303Z,30.00
2022-07-28T09:11:51.999Z,30.00
2022-07-28T09:14:19.731Z,30.00
2022-07-28T09:16:48.735Z,30.00
2022-07-28T09:19:16.420Z,30.00
2022-07-28T09:21:44.124Z,29.90
2022-07-28T09:24:12.054Z,29.90
2022-07-28T09:26:43.765Z,29.90
2022-07-28T09:29:11.469Z,29.90
2022-07-28T09:31:39.233Z,29.90
2022-07-28T09:34:08.419Z,29.90
2022-07-28T09:36:38.746Z,29.90
2022-07-28T09:39:06.497Z,29.90
2022-07-28T09:41:47.355Z,29.90
2022-07-28T09:44:18.940Z,29.90
2022-07-28T09:46:46.897Z,29.90
2022-07-28T09:49:16.261Z,29.90
2022-07-28T09:51:44.021Z,29.90
2022-07-28T09:54:12.804Z,29.80
2022-07-28T09:56:41.748Z,29.90
2022-07-28T09:59:09.527Z,29.80
2022-07-28T10:01:52.186Z,29.80
2022-07-28T10:04:31.741Z,29.90
2022-07-28T10:07:05.432Z,29.80
2022-07-28T10:09:33.215Z,29.70
2022-07-28T10:12:19.459Z,29.70
2022-07-28T10:14:47.449Z,29.80
2022-07-28T10:17:31.058Z,29.70
2022-07-28T10:20:00.981Z,29.70
2022-07-28T10:22:29.897Z,29.60
2022-07-28T10:24:57.625Z,29.70
2022-07-28T10:27:25.868Z,29.70
2022-07-28T10:29:56.713Z,29.70
2022-07-28T10:32:24.401Z,29.70
2022-07-28T10:34:52.927Z,29.70
2022-07-28T10:37:23.615Z,29.70
2022-07-28T10:39:56.298Z,29.70
2022-07-28T10:42:24.243Z,29.70
2022-07-28T10:44:52.353Z,29.70
2022-07-28T10:47:20.593Z,29.70
2022-07-28T10:49:48.650Z,29.70
2022-07-28T10:52:45.831Z,29.70
2022-07-28T10:55:10.524Z,29.70
2022-07-28T10:57:38.855Z,29.70
2022-07-28T11:00:17.626Z,29.70
2022-07-28T11:02:51.158Z,29.70
2022-07-28T11:05:32.883Z,29.70
2022-07-28T11:08:02.269Z,29.70
2022-07-28T11:10:31.540Z,29.60
2022-07-28T11:13:00.515Z,29.60
2022-07-28T11:15:33.768Z,29.60
2022-07-28T11:18:04.213Z,29.60
2022-07-28T11:21:08.755Z,29.60
2022-07-28T11:23:54.934Z,29.60
2022-07-28T11:26:38.664Z,29.60
2022-07-28T11:29:20.156Z,29.60
2022-07-28T11:31:57.952Z,29.60
2022-07-28T11:34:26.412Z,29.60
2022-07-28T11:37:02.292Z,29.50
2022-07-28T11:39:30.699Z,29.50
2022-07-28T11:42:27.557Z,29.60
2022-07-28T11:44:55.564Z,29.60
2022-07-28T11:47:23.763Z,29.40
2022-07-28T11:50:13.132Z,29.40
2022-07-28T11:52:41.381Z,29.50
2022-07-28T11:55:09.131Z,29.40
2022-07-28T11:57:41.881Z,29.30
2022-07-28T12:00:10.601Z,29.20
2022-07-28T12:02:38.923Z,29.10
2022-07-28T12:05:12.222Z,29.00
2022-07-28T12:07:42.262Z,29.00
2022-07-28T12:10:52.292Z,28.90
2022-07-28T12:13:16.278Z,28.90
2022-07-28T12:15:50.584Z,28.70
2022-07-28T12:18:18.341Z,28.70
2022-07-28T12:20:48.618Z,28.60
2022-07-28T12:23:16.708Z,28.60
2022-07-28T12:25:45.978Z,28.50
2022-07-28T12:28:17.150Z,28.50
2022-07-28T12:30:46.131Z,28.30
2022-07-28T12:33:17.704Z,28.30
2022-07-28T12:35:45.488Z,28.20
2022-07-28T12:38:13.269Z,28.30
2022-07-28T12:40:41.057Z,28.20
2022-07-28T12:43:08.789Z,28.10
2022-07-28T12:45:46.059Z,28.00
2022-07-28T12:48:14.386Z,28.00
2022-07-28T12:50:42.567Z,28.00
2022-07-28T12:53:11.369Z,28.10
2022-07-28T12:55:39.518Z,28.10
2022-07-28T12:58:07.848Z,28.00
2022-07-28T13:00:36.715Z,28.00
2022-07-28T13:03:22.239Z,27.90
2022-07-28T13:06:04.924Z,28.00
2022-07-28T13:08:44.740Z,27.90
2022-07-28T13:11:41.986Z,27.90
2022-07-28T13:14:01.882Z,27.80
2022-07-28T13:16:29.872Z,27.80
2022-07-28T13:19:02.444Z,27.90
2022-07-28T13:21:41.152Z,27.90
2022-07-28T13:24:25.221Z,28.00
2022-07-28T13:26:53.025Z,28.10
2022-07-28T13:29:20.725Z,28.20
2022-07-28T13:31:48.606Z,28.20
2022-07-28T13:34:18.207Z,28.20
2022-07-28T13:36:46.153Z,28.20
2022-07-28T13:39:14.451Z,28.10
2022-07-28T13:41:57.812Z,27.90
2022-07-28T13:44:26.680Z,28.00
2022-07-28T13:46:55.340Z,28.20
2022-07-28T13:49:24.676Z,28.10
2022-07-28T13:51:52.437Z,28.10
2022-07-28T13:54:20.698Z,28.10
2022-07-28T13:56:48.881Z,28.10
2022-07-28T13:59:16.680Z,28.10
2022-07-28T14:01:44.472Z,28.10
2022-07-28T14:04:18.050Z,28.10
2022-07-28T14:06:47.213Z,27.90
2022-07-28T14:09:18.863Z,28.00
2022-07-28T14:11:50.106Z,28.00
2022-07-28T14:14:23.800Z,28.00
2022-07-28T14:16:52.815Z,27.90
2022-07-28T14:19:23.415Z,28.00
2022-07-28T14:22:13.304Z,28.10
2022-07-28T14:24:41.932Z,28.00
2022-07-28T14:27:10.352Z,28.00
2022-07-28T14:29:38.421Z,28.10
2022-07-28T14:32:06.689Z,28.10
2022-07-28T14:34:34.681Z,28.10
2022-07-28T14:37:03.525Z,28.10
2022-07-28T14:39:37.987Z,28.10
2022-07-28T14:42:06.069Z,28.10
2022-07-28T14:44:33.966Z,28.00
2022-07-28T14:47:01.685Z,27.90
2022-07-28T14:49:29.510Z,27.90
2022-07-28T14:51:57.821Z,28.00
2022-07-28T14:54:25.763Z,28.10
2022-07-28T14:56:54.902Z,28.00
2022-07-28T14:59:22.651Z,28.00
2022-07-28T15:01:50.464Z,28.00
2022-07-28T15:04:18.852Z,28.00
2022-07-28T15:06:47.189Z,28.00
2022-07-28T15:09:15.103Z,28.00
2022-07-28T15:11:44.631Z,28.00
2022-07-28T15:14:14.705Z,28.00
2022-07-28T15:16:42.742Z,28.00
2022-07-28T15:19:10.524Z,27.80
2022-07-28T15:21:39.833Z,27.90
2022-07-28T15:24:08.575Z,27.90
2022-07-28T15:26:36.364Z,27.90
2022-07-28T15:29:04.328Z,27.90
2022-07-28T15:31:33.613Z,27.90
2022-07-28T15:34:01.578Z,27.90
2022-07-28T15:36:30.227Z,27.90
2022-07-28T15:38:57.922Z,27.80
2022-07-28T15:41:26.904Z,27.90
2022-07-28T15:43:54.625Z,27.80
2022-07-28T15:46:22.318Z,27.90
2022-07-28T15:48:51.409Z,27.80
2022-07-28T15:51:22.612Z,27.90
2022-07-28T15:53:56.114Z,27.90
2022-07-28T15:56:26.144Z,27.80
2022-07-28T15:58:53.888Z,27.80
2022-07-28T16:01:22.833Z,27.80
2022-07-28T16:03:51.923Z,27.80
2022-07-28T16:06:19.668Z,27.90
2022-07-28T16:08:47.396Z,27.90
2022-07-28T16:11:15.170Z,27.90
2022-07-28T16:13:43.057Z,27.90
2022-07-28T16:16:11.923Z,28.00
2022-07-28T16:18:40.705Z,28.00
2022-07-28T16:21:10.350Z,27.90
2022-07-28T16:23:38.084Z,28.00
2022-07-28T16:26:07.873Z,28.00
2022-07-28T16:28:35.901Z,27.90
2022-07-28T16:31:03.709Z,27.80
2022-07-28T16:33:33.098Z,27.90
2022-07-28T16:36:01.676Z,27.90
2022-07-28T16:38:31.102Z,27.90
2022-07-28T16:40:58.813Z,28.20
2022-07-28T16:43:26.580Z,28.10
2022-07-28T16:45:54.310Z,28.10
2022-07-28T16:48:22.038Z,28.00
2022-07-28T16:50:49.729Z,27.90
2022-07-28T16:53:17.492Z,27.90
2022-07-28T16:55:48.033Z,27.70
2022-07-28T16:58:15.760Z,27.80
2022-07-28T17:00:43.901Z,27.80
2022-07-28T17:03:11.616Z,27.80
2022-07-28T17:05:39.366Z,27.70
2022-07-28T17:08:08.813Z,27.80
2022-07-28T17:10:36.520Z,27.80
2022-07-28T17:13:05.564Z,27.80
2022-07-28T17:15:33.344Z,27.80
2022-07-28T17:18:01.051Z,27.80
2022-07-28T17:20:28.857Z,27.80
2022-07-28T17:22:57.755Z,27.80
2022-07-28T17:25:50.265Z,27.80
2022-07-28T17:28:14.842Z,27.90
2022-07-28T17:30:42.614Z,27.80
2022-07-28T17:33:10.372Z,27.80
2022-07-28T17:35:38.443Z,27.80
2022-07-28T17:38:06.844Z,27.90
2022-07-28T17:40:34.639Z,27.90
2022-07-28T17:43:02.463Z,27.90
2022-07-28T17:45:31.509Z,27.90
2022-07-28T17:47:59.172Z,27.90
2022-07-28T17:50:26.876Z,27.80
2022-07-28T17:52:54.593Z,27.90
2022-07-28T17:56:00.522Z,27.90
2022-07-28T17:58:29.009Z,27.90
2022-07-28T18:01:09.804Z,27.90
2022-07-28T18:03:58.499Z,27.90
2022-07-28T18:06:27.509Z,27.90
2022-07-28T18:08:55.215Z,27.90
2022-07-28T18:11:22.927Z,27.90
2022-07-28T18:14:04.193Z,27.90
2022-07-28T18:16:34.845Z,27.80
2022-07-28T18:19:02.780Z,27.80
2022-07-28T18:21:30.491Z,27.80
2022-07-28T18:23:58.240Z,27.80
2022-07-28T18:26:25.934Z,27.80
2022-07-28T18:28:53.625Z,27.80
2022-07-28T18:31:21.678Z,27.80
2022-07-28T18:33:50.893Z,27.80
2022-07-28T18:36:18.567Z,27.80
2022-07-28T18:38:46.288Z,27.80
2022-07-28T18:41:13.992Z,27.80
2022-07-28T18:43:41.736Z,27.70
2022-07-28T18:46:09.509Z,27.70
2022-07-28T18:48:37.966Z,27.70
2022-07-28T18:51:07.124Z,27.70
2022-07-28T18:53:35.057Z,27.60
2022-07-28T18:56:02.725Z,27.60
2022-07-28T18:58:30.659Z,27.60
2022-07-28T19:00:58.432Z,27.60
2022-07-28T19:03:26.121Z,27.60
2022-07-28T19:05:54.276Z,27.70
2022-07-28T19:08:23.860Z,27.60
2022-07-28T19:10:51.552Z,27.60
2022-07-28T19:13:19.289Z,27.60
2022-07-28T19:15:47.074Z,27.60
2022-07-28T19:18:14.826Z,27.60
2022-07-28T19:20:42.595Z,27.70
2022-07-28T19:23:10.250Z,27.70
2022-07-28T19:25:40.187Z,27.70
2022-07-28T19:28:07.847Z,27.60
2022-07-28T19:30:35.894Z,27.60
2022-07-28T19:33:03.843Z,27.60
2022-07-28T19:35:31.573Z,27.60
2022-07-28T19:38:00.908Z,27.60
2022-07-28T19:40:31.506Z,27.60
2022-07-28T19:43:00.674Z,27.60
2022-07-28T19:45:28.348Z,27.60
2022-07-28T19:47:56.033Z,27.60
2022-07-28T19:50:23.705Z,27.60
2022-07-28T19:52:51.367Z,27.50
2022-07-28T19:55:19.714Z,27.50
2022-07-28T19:57:47.413Z,27.50
2022-07-28T20:00:17.292Z,27.50
2022-07-28T20:02:45.702Z,27.50
2022-07-28T20:05:13.556Z,27.50
2022-07-28T20:07:41.238Z,27.50
2022-07-28T20:10:09.487Z,27.50
2022-07-28T20:12:37.223Z,27.50
2022-07-28T20:15:05.202Z,27.50
2022-07-28T20:17:41.390Z,27.50
2022-07-28T20:20:10.196Z,27.40
2022-07-28T20:22:39.599Z,27.40
2022-07-28T20:25:09.467Z,27.40
2022-07-28T20:27:39.882Z,27.40
2022-07-28T20:30:09.572Z,27.40
2022-07-28T20:32:38.643Z,27.40
2022-07-28T20:35:09.035Z,27.40
2022-07-28T20:37:37.805Z,27.40
2022-07-28T20:40:07.569Z,27.40
2022-07-28T20:42:35.276Z,27.40
2022-07-28T20:45:02.976Z,27.40
2022-07-28T20:47:32.645Z,27.40
2022-07-28T20:50:01.751Z,27.40
2022-07-28T20:52:30.139Z,27.30
2022-07-28T20:54:57.822Z,27.30
2022-07-28T20:57:25.504Z,27.30
2022-07-28T20:59:53.190Z,27.30
2022-07-28T21:02:21.102Z,27.30
2022-07-28T21:04:50.472Z,27.30
2022-07-28T21:07:59.575Z,27.30
2022-07-28T21:10:08.258Z,27.30
2022-07-28T21:12:36.971Z,27.20
2022-07-28T21:15:04.971Z,27.30
2022-07-28T21:17:32.704Z,27.20
2022-07-28T21:20:00.384Z,27.20
2022-07-28T21:22:29.390Z,27.30
2022-07-28T21:24:57.074Z,27.30
2022-07-28T21:27:24.864Z,27.20
2022-07-28T21:32:18.335Z,27.20
2022-07-28T21:34:46.047Z,27.20
2022-07-28T21:37:14.033Z,27.20
2022-07-28T21:39:43.287Z,27.20
2022-07-28T21:42:10.973Z,27.20
2022-07-28T21:44:38.663Z,27.20
2022-07-28T21:47:06.499Z,27.20
2022-07-28T21:49:34.169Z,27.20
2022-07-28T21:52:01.836Z,27.10
2022-07-28T21:54:29.524Z,27.10
2022-07-28T21:56:58.751Z,27.10
2022-07-28T21:59:26.427Z,27.10
2022-07-28T22:01:54.150Z,27.10
2022-07-28T22:04:22.091Z,27.10
2022-07-28T22:06:50.336Z,27.10
2022-07-28T22:09:18.046Z,27.10
2022-07-28T22:11:45.731Z,27.10
2022-07-28T22:14:15.008Z,27.10
2022-07-28T22:16:42.947Z,27.10
2022-07-28T22:19:12.048Z,27.10
2022-07-28T22:21:39.769Z,27.10
2022-07-28T22:24:08.445Z,27.10
2022-07-28T22:26:36.133Z,27.10
2022-07-28T22:29:03.851Z,27.10
2022-07-28T22:31:32.895Z,27.00
2022-07-28T22:34:00.586Z,27.00
2022-07-28T22:36:28.540Z,27.00
2022-07-28T22:38:56.230Z,27.00
2022-07-28T22:41:23.907Z,27.00
2022-07-28T22:43:51.560Z,27.00
2022-07-28T22:46:19.260Z,27.00
2022-07-28T22:48:48.335Z,27.00
2022-07-28T22:51:16.616Z,27.00
2022-07-28T22:53:44.273Z,27.00
2022-07-28T22:56:12.015Z,27.00
2022-07-28T22:58:40.053Z,27.00
2022-07-28T23:01:07.838Z,27.00
2022-07-28T23:03:36.856Z,27.00
2022-07-28T23:06:07.426Z,26.90
2022-07-28T23:08:35.072Z,26.90
2022-07-28T23:11:02.809Z,26.90
2022-07-28T23:13:30.469Z,26.90
2022-07-28T23:15:58.208Z,26.90
2022-07-28T23:18:25.930Z,26.90
2022-07-28T23:20:53.579Z,26.90
2022-07-28T23:23:22.628Z,26.90
2022-07-28T23:25:50.320Z,26.90
2022-07-28T23:28:18.048Z,26.90
2022-07-28T23:30:47.193Z,26.90
2022-07-28T23:33:20.659Z,26.90
2022-07-28T23:36:02.544Z,26.90
2022-07-28T23:38:31.566Z,26.80
2022-07-28T23:40:59.243Z,26.90
2022-07-28T23:43:26.908Z,26.90
2022-07-28T23:45:54.568Z,26.80
2022-07-28T23:48:22.250Z,26.90
2022-07-28T23:50:50.087Z,26.80
2022-07-28T23:53:17.753Z,26.80
2022-07-28T23:55:46.756Z,26.80
2022-07-28T23:58:14.419Z,26.80
